Time;durP1;ratioP1;P1;durP2;ratioP2;P2;SDS_P1;SDS_P2;PMS_P1;PMS_P2;Temp;Humidity;BMP_temperature;BMP_pressure;BME280_temperature;BME280_humidity;BME280_pressure;Samples;Min_cycle;Max_cycle;Signal;HPM_P1;HPM_P2
2023/10/09 00:01:51;;;;;;;1.23;0.43;;;7.90;92.70;;;;;;5007217;28;20073;-72
2023/10/09 00:04:20;;;;;;;6.43;0.75;;;7.90;93.10;;;;;;5006015;28;20053;-72
2023/10/09 00:06:48;;;;;;;2.83;0.70;;;7.90;93.70;;;;;;5005026;28;20046;-72
2023/10/09 00:12:43;;;;;;;2.35;0.57;;;7.80;97.10;;;;;;4987346;28;20042;-70
2023/10/09 00:15:12;;;;;;;1.88;0.63;;;7.80;98.50;;;;;;4996646;28;20046;-69
2023/10/09 00:17:39;;;;;;;0.65;0.43;;;7.70;99.00;;;;;;5002072;28;20067;-69
2023/10/09 00:20:18;;;;;;;3.70;1.02;;;7.70;98.80;;;;;;4998975;28;20100;-69
2023/10/09 00:22:46;;;;;;;4.50;0.85;;;7.70;99.60;;;;;;4994853;28;20113;-69
2023/10/09 00:25:22;;;;;;;0.90;0.68;;;7.70;100.00;;;;;;5000343;28;20057;-69
2023/10/09 00:27:49;;;;;;;3.92;0.70;;;7.70;100.00;;;;;;4995599;28;20109;-70
2023/10/09 00:30:29;;;;;;;2.88;0.60;;;7.60;100.00;;;;;;4995325;28;20042;-69
2023/10/09 00:33:05;;;;;;;1.65;0.63;;;7.60;100.00;;;;;;4991323;28;20922;-70
2023/10/09 00:35:37;;;;;;;3.42;0.70;;;7.70;100.00;;;;;;4987143;28;20050;-69
2023/10/09 00:38:22;;;;;;;1.73;1.15;;;7.70;100.00;;;;;;4982092;28;20054;-70
2023/10/09 00:43:36;;;;;;;1.92;0.80;;;7.70;100.00;;;;;;4986242;28;20132;-69
2023/10/09 00:46:23;;;;;;;3.10;1.10;;;7.70;100.00;;;;;;4988670;28;20054;-69
2023/10/09 00:49:01;;;;;;;2.45;0.90;;;7.70;100.00;;;;;;4986455;28;20039;-69
2023/10/09 00:51:35;;;;;;;4.32;2.17;;;7.70;100.00;;;;;;4987326;28;20046;-70
2023/10/09 00:54:13;;;;;;;4.80;3.00;;;7.70;100.00;;;;;;4975887;28;20435;-69
2023/10/09 00:56:51;;;;;;;6.07;2.70;;;7.70;100.00;;;;;;4985913;28;20058;-69
2023/10/09 00:59:22;;;;;;;4.93;1.15;;;7.70;100.00;;;;;;4986711;28;20054;-69
2023/10/09 01:02:05;;;;;;;4.35;2.05;;;7.70;100.00;;;;;;4985183;28;20186;-70
2023/10/09 01:04:32;;;;;;;3.67;1.52;;;7.70;100.00;;;;;;4986461;28;20522;-69
2023/10/09 01:07:10;;;;;;;3.20;1.40;;;7.60;100.00;;;;;;4984937;28;20050;-70
2023/10/09 01:09:38;;;;;;;3.10;1.10;;;7.60;100.00;;;;;;4983820;28;20687;-69
2023/10/09 01:12:05;;;;;;;4.10;1.20;;;7.60;100.00;;;;;;4979671;28;20050;-69
2023/10/09 01:14:41;;;;;;;2.40;1.15;;;7.60;100.00;;;;;;4990293;28;20050;-69
2023/10/09 01:17:09;;;;;;;5.13;1.10;;;7.70;100.00;;;;;;4980298;28;20534;-70
2023/10/09 01:19:36;;;;;;;4.40;1.08;;;7.70;100.00;;;;;;4984004;28;20169;-70
2023/10/09 01:22:16;;;;;;;2.88;0.93;;;7.60;100.00;;;;;;4976902;28;20054;-70
2023/10/09 01:24:43;;;;;;;4.00;1.02;;;7.60;100.00;;;;;;4985576;28;20058;-70
2023/10/09 01:27:16;;;;;;;2.28;1.15;;;7.60;100.00;;;;;;4987362;28;20559;-70
2023/10/09 01:29:45;;;;;;;6.10;0.90;;;7.60;100.00;;;;;;4983102;28;20050;-70
2023/10/09 01:32:16;;;;;;;2.50;1.10;;;7.60;100.00;;;;;;4985158;28;20129;-70
2023/10/09 01:34:48;;;;;;;5.88;1.25;;;7.60;100.00;;;;;;4983630;28;20045;-70
2023/10/09 01:37:22;;;;;;;2.58;0.90;;;7.60;100.00;;;;;;4985618;28;20058;-70
2023/10/09 01:39:51;;;;;;;2.47;1.13;;;7.60;100.00;;;;;;4984498;28;20112;-70
2023/10/09 01:45:11;;;;;;;2.53;1.15;;;7.60;100.00;;;;;;4985663;28;20063;-70
2023/10/09 01:47:39;;;;;;;2.13;1.00;;;7.60;100.00;;;;;;4984817;28;20056;-70
2023/10/09 01:50:22;;;;;;;3.75;0.85;;;7.50;100.00;;;;;;4986134;28;20049;-70
2023/10/09 01:52:51;;;;;;;2.10;0.90;;;7.50;100.00;;;;;;4981076;28;20066;-70
2023/10/09 01:55:28;;;;;;;1.70;0.90;;;7.50;100.00;;;;;;4991722;28;20054;-70
2023/10/09 01:58:05;;;;;;;2.10;1.02;;;7.50;100.00;;;;;;4983969;28;20144;-70
2023/10/09 02:00:35;;;;;;;2.50;1.13;;;7.50;100.00;;;;;;4983548;28;20061;-70
2023/10/09 02:03:05;;;;;;;5.82;0.98;;;7.50;100.00;;;;;;4981610;28;20065;-70
2023/10/09 02:05:36;;;;;;;1.67;0.93;;;7.50;100.00;;;;;;4986127;28;20061;-70
2023/10/09 02:08:05;;;;;;;5.60;1.08;;;7.50;100.00;;;;;;4983571;28;20051;-70
2023/10/09 02:10:37;;;;;;;4.18;0.90;;;7.50;100.00;;;;;;4987169;28;20074;-70
2023/10/09 02:13:06;;;;;;;1.83;1.02;;;7.50;100.00;;;;;;4979815;28;20488;-70
2023/10/09 02:20:46;;;;;;;2.15;1.15;;;7.50;100.00;;;;;;4985545;28;20658;-70
2023/10/09 02:23:13;;;;;;;0.00;0.00;;;7.50;100.00;;;;;;4983616;28;20140;-70
2023/10/09 02:25:43;;;;;;;0.00;0.00;;;7.50;100.00;;;;;;4983137;28;20148;-70
2023/10/09 02:28:19;;;;;;;0.00;0.00;;;7.60;100.00;;;;;;4987042;28;20050;-70
2023/10/09 02:30:50;;;;;;;0.00;0.00;;;7.60;100.00;;;;;;4981220;28;20069;-70
2023/10/09 02:33:24;;;;;;;0.00;0.00;;;7.60;100.00;;;;;;4980489;28;20125;-70
2023/10/09 02:35:51;;;;;;;0.00;0.00;;;7.60;100.00;;;;;;4981781;28;20057;-70
2023/10/09 02:38:22;;;;;;;0.00;0.00;;;7.50;100.00;;;;;;4985084;28;20062;-70
2023/10/09 02:43:44;;;;;;;0.00;0.00;;;7.50;100.00;;;;;;4983315;28;20056;-70
2023/10/09 02:46:20;;;;;;;0.00;0.00;;;7.50;100.00;;;;;;4984069;28;20054;-70
2023/10/09 02:48:50;;;;;;;0.00;0.00;;;7.60;100.00;;;;;;4984788;28;20148;-70
2023/10/09 02:51:31;;;;;;;0.00;0.00;;;7.60;100.00;;;;;;4988424;28;20050;-70
2023/10/09 02:54:07;;;;;;;0.00;0.00;;;7.60;100.00;;;;;;4982216;28;20528;-70
2023/10/09 02:56:37;;;;;;;0.00;0.00;;;7.60;100.00;;;;;;4978622;28;20740;-70
2023/10/09 02:59:07;;;;;;;0.00;0.00;;;7.60;100.00;;;;;;4981998;28;20046;-70
2023/10/09 03:01:37;;;;;;;0.00;0.00;;;7.60;100.00;;;;;;4982806;28;20857;-70
2023/10/09 03:04:05;;;;;;;0.00;0.00;;;7.60;100.00;;;;;;4980930;28;20053;-70
2023/10/09 03:06:38;;;;;;;0.00;0.00;;;7.60;100.00;;;;;;4980965;28;20504;-70
2023/10/09 03:09:16;;;;;;;0.00;0.00;;;7.60;100.00;;;;;;4984889;28;20081;-70
2023/10/09 03:11:53;;;;;;;0.00;0.00;;;7.60;100.00;;;;;;4984691;28;20046;-70
2023/10/09 03:14:26;;;;;;;0.00;0.00;;;7.60;100.00;;;;;;4985786;28;20777;-70
2023/10/09 03:16:53;;;;;;;0.00;0.00;;;7.60;100.00;;;;;;4987330;28;20057;-70
2023/10/09 03:19:20;;;;;;;0.00;0.00;;;7.60;100.00;;;;;;4986096;28;20447;-70
2023/10/09 03:21:48;;;;;;;0.00;0.00;;;7.60;100.00;;;;;;4987222;28;20050;-70
2023/10/09 03:24:15;;;;;;;0.00;0.00;;;7.50;100.00;;;;;;4993208;28;20128;-70
2023/10/09 03:26:45;;;;;;;0.00;0.00;;;7.50;100.00;;;;;;4991554;28;20046;-70
2023/10/09 03:29:12;;;;;;;0.00;0.00;;;7.60;100.00;;;;;;4987709;28;20062;-70
2023/10/09 03:31:41;;;;;;;0.00;0.00;;;7.60;100.00;;;;;;4987184;28;20073;-71
2023/10/09 03:34:10;;;;;;;0.00;0.00;;;7.60;100.00;;;;;;4987327;28;20105;-70
2023/10/09 03:36:38;;;;;;;0.00;0.00;;;7.60;100.00;;;;;;4983305;28;20100;-70
2023/10/09 03:42:11;;;;;;;0.00;0.00;;;7.60;100.00;;;;;;4992506;28;20050;-72
2023/10/09 03:44:48;;;;;;;0.00;0.00;;;7.60;100.00;;;;;;4990006;28;20134;-73
2023/10/09 03:47:16;;;;;;;0.00;0.00;;;7.60;100.00;;;;;;4987688;28;20062;-72
2023/10/09 03:49:43;;;;;;;0.00;0.00;;;7.60;100.00;;;;;;4987754;28;20042;-72
2023/10/09 03:52:17;;;;;;;0.00;0.00;;;7.60;100.00;;;;;;4988855;28;20042;-72
2023/10/09 03:54:47;;;;;;;0.00;0.00;;;7.70;100.00;;;;;;4988214;28;20047;-72
2023/10/09 03:57:19;;;;;;;0.00;0.00;;;7.70;100.00;;;;;;4998411;28;20429;-72
2023/10/09 03:59:51;;;;;;;0.00;0.00;;;7.70;100.00;;;;;;4995373;28;20078;-70
2023/10/09 04:02:18;;;;;;;0.00;0.00;;;7.70;100.00;;;;;;4986125;28;20132;-70
2023/10/09 04:04:47;;;;;;;0.00;0.00;;;7.70;100.00;;;;;;4985184;28;20105;-70
2023/10/09 04:07:16;;;;;;;0.00;0.00;;;7.70;100.00;;;;;;4986152;28;20057;-70
2023/10/09 04:09:47;;;;;;;0.00;0.00;;;7.70;100.00;;;;;;4994172;28;20154;-70
2023/10/09 04:12:21;;;;;;;0.00;0.00;;;7.80;100.00;;;;;;4984485;28;20046;-70
2023/10/09 04:21:34;;;;;;;0.00;0.00;;;7.80;100.00;;;;;;4969804;28;20054;-71
2023/10/09 04:26:37;;;;;;;0.00;0.00;;;7.80;100.00;;;;;;4976741;28;20049;-71
2023/10/09 04:29:05;;;;;;;0.00;0.00;;;7.80;100.00;;;;;;4973314;28;20130;-71
2023/10/09 04:31:32;;;;;;;0.00;0.00;;;7.70;100.00;;;;;;4968212;28;20042;-71
2023/10/09 04:36:49;;;;;;;0.00;0.00;;;7.70;100.00;;;;;;4970398;28;20101;-71
2023/10/09 04:45:25;;;;;;;0.00;0.00;;;7.70;100.00;;;;;;4961928;28;20053;-70
2023/10/09 04:47:49;;;;;;;0.00;0.00;;;7.70;100.00;;;;;;4962601;28;20078;-71
2023/10/09 04:53:22;;;;;;;0.00;0.00;;;7.70;100.00;;;;;;4966173;28;20510;-71
2023/10/09 04:55:54;;;;;;;0.00;0.00;;;7.70;100.00;;;;;;4970176;28;20513;-71
2023/10/09 04:58:24;;;;;;;0.00;0.00;;;7.70;100.00;;;;;;4964775;28;20057;-71
2023/10/09 05:03:27;;;;;;;0.00;0.00;;;7.60;100.00;;;;;;4963945;28;20058;-75
2023/10/09 05:06:20;;;;;;;0.00;0.00;;;7.60;100.00;;;;;;4967088;28;20046;-74
2023/10/09 05:08:49;;;;;;;0.00;0.00;;;7.60;100.00;;;;;;4967747;28;20133;-75
2023/10/09 05:14:38;;;;;;;0.00;0.00;;;7.50;100.00;;;;;;4962081;28;20053;-70
2023/10/09 05:17:09;;;;;;;0.00;0.00;;;7.50;100.00;;;;;;4966414;28;20053;-71
2023/10/09 05:19:42;;;;;;;0.00;0.00;;;7.50;100.00;;;;;;4965350;28;20078;-71
2023/10/09 05:22:36;;;;;;;0.00;0.00;;;7.40;100.00;;;;;;4965503;28;20047;-74
2023/10/09 05:25:15;;;;;;;0.00;0.00;;;7.40;100.00;;;;;;4964724;28;20050;-69
2023/10/09 05:27:50;;;;;;;0.00;0.00;;;7.40;100.00;;;;;;4963653;28;20062;-70
2023/10/09 05:30:27;;;;;;;0.00;0.00;;;7.40;100.00;;;;;;4962745;28;20046;-70
2023/10/09 05:32:58;;;;;;;0.00;0.00;;;7.30;100.00;;;;;;4965351;28;20047;-70
2023/10/09 05:35:48;;;;;;;0.00;0.00;;;7.30;100.00;;;;;;4967057;28;20047;-70
2023/10/09 05:38:25;;;;;;;0.00;0.00;;;7.30;100.00;;;;;;4965143;28;20054;-70
2023/10/09 05:40:53;;;;;;;0.00;0.00;;;7.30;100.00;;;;;;4963161;28;20051;-70
2023/10/09 05:46:09;;;;;;;0.00;0.00;;;7.20;100.00;;;;;;4956545;28;20055;-70
2023/10/09 06:04:53;;;;;;;0.00;0.00;;;7.30;100.00;;;;;;4928731;28;20160;-70
2023/10/09 06:07:40;;;;;;;0.00;0.00;;;7.30;100.00;;;;;;4964013;28;20053;-70
2023/10/09 06:10:18;;;;;;;0.00;0.00;;;7.40;100.00;;;;;;4958927;28;20058;-70
2023/10/09 06:15:32;;;;;;;0.00;0.00;;;7.50;100.00;;;;;;4967891;28;20066;-70
2023/10/09 06:18:25;;;;;;;0.00;0.00;;;7.50;100.00;;;;;;4966023;28;20097;-70
2023/10/09 06:26:33;;;;;;;0.00;0.00;;;7.70;100.00;;;;;;4951875;28;20538;-70
2023/10/09 06:29:16;;;;;;;0.00;0.00;;;7.70;100.00;;;;;;4966230;28;20102;-70
2023/10/09 06:31:58;;;;;;;0.00;0.00;;;7.80;100.00;;;;;;4966917;28;20129;-70
2023/10/09 06:34:44;;;;;;;0.00;0.00;;;7.80;100.00;;;;;;4968265;28;20043;-70
2023/10/09 06:38:21;;;;;;;0.00;0.00;;;7.90;100.00;;;;;;4964752;28;20051;-70
2023/10/09 06:41:23;;;;;;;0.00;0.00;;;8.00;100.00;;;;;;4961091;28;20082;-70
2023/10/09 06:42:57;;;;;;;0.00;0.00;;;8.10;100.00;;;;;;4967914;28;20072;-70
2023/10/09 06:45:36;;;;;;;0.00;0.00;;;8.10;100.00;;;;;;4965466;28;20193;-70
2023/10/09 06:51:40;;;;;;;0.00;0.00;;;8.30;100.00;;;;;;4960912;28;20050;-71
2023/10/09 06:54:15;;;;;;;0.00;0.00;;;8.40;100.00;;;;;;4960694;28;20074;-68
2023/10/09 06:57:13;;;;;;;0.00;0.00;;;8.40;100.00;;;;;;4959917;28;21419;-67
2023/10/09 07:00:15;;;;;;;0.00;0.00;;;8.40;100.00;;;;;;4961214;28;20059;-71
2023/10/09 07:02:31;;;;;;;0.00;0.00;;;8.50;100.00;;;;;;4962693;28;20070;-70
2023/10/09 07:05:10;;;;;;;0.00;0.00;;;8.60;100.00;;;;;;4964730;28;20506;-73
2023/10/09 07:07:50;;;;;;;0.00;0.00;;;8.70;100.00;;;;;;4960852;28;20050;-70
2023/10/09 07:10:29;;;;;;;0.00;0.00;;;8.80;100.00;;;;;;4953480;28;20113;-70
2023/10/09 07:12:57;;;;;;;0.00;0.00;;;8.80;100.00;;;;;;4963067;28;20514;-71
2023/10/09 07:16:23;;;;;;;0.00;0.00;;;8.90;100.00;;;;;;4961154;28;20038;-70
2023/10/09 07:18:40;;;;;;;0.00;0.00;;;8.90;100.00;;;;;;4962211;28;20135;-70
2023/10/09 07:21:11;;;;;;;0.00;0.00;;;9.00;100.00;;;;;;4958629;28;20051;-71
2023/10/09 07:23:48;;;;;;;0.00;0.00;;;9.10;100.00;;;;;;4962812;28;20117;-70
2023/10/09 07:26:18;;;;;;;0.00;0.00;;;9.20;100.00;;;;;;4983400;23;20054;-70
2023/10/09 07:28:48;;;;;;;0.00;0.00;;;9.20;100.00;;;;;;5001764;28;20390;-70
2023/10/09 07:31:27;;;;;;;0.00;0.00;;;9.30;100.00;;;;;;5005141;28;20085;-69
2023/10/09 07:33:57;;;;;;;0.00;0.00;;;9.30;100.00;;;;;;5002898;28;20981;-70
2023/10/09 07:36:34;;;;;;;0.00;0.00;;;9.40;100.00;;;;;;5003928;28;20049;-71
2023/10/09 07:39:12;;;;;;;0.00;0.00;;;9.50;100.00;;;;;;5003485;28;20128;-68
2023/10/09 07:41:45;;;;;;;0.00;0.00;;;9.50;100.00;;;;;;5007290;28;20061;-71
2023/10/09 07:44:36;;;;;;;0.00;0.00;;;9.70;100.00;;;;;;5001539;28;20049;-71
2023/10/09 07:47:22;;;;;;;0.00;0.00;;;9.70;100.00;;;;;;5000138;28;20081;-70
2023/10/09 07:49:53;;;;;;;0.00;0.00;;;9.80;100.00;;;;;;5002759;28;20129;-70
2023/10/09 07:52:21;;;;;;;0.00;0.00;;;9.90;100.00;;;;;;5009127;28;20116;-70
2023/10/09 07:55:01;;;;;;;0.00;0.00;;;10.00;100.00;;;;;;5010230;28;20045;-70
2023/10/09 07:57:38;;;;;;;0.00;0.00;;;10.10;100.00;;;;;;5005115;28;20073;-70
2023/10/09 08:00:35;;;;;;;0.00;0.00;;;10.10;100.00;;;;;;5006772;28;20530;-70
2023/10/09 08:03:00;;;;;;;0.00;0.00;;;10.20;100.00;;;;;;5005244;28;20050;-70
2023/10/09 08:05:33;;;;;;;0.00;0.00;;;10.20;100.00;;;;;;5007519;28;20136;-70
2023/10/09 08:08:18;;;;;;;0.00;0.00;;;10.30;100.00;;;;;;5008289;28;20184;-69
2023/10/09 08:13:49;;;;;;;0.00;0.00;;;10.50;100.00;;;;;;5008943;28;20129;-70
2023/10/09 08:16:21;;;;;;;0.00;0.00;;;10.60;100.00;;;;;;5004088;28;20049;-71
2023/10/09 08:18:51;;;;;;;0.00;0.00;;;10.80;100.00;;;;;;5008712;28;20045;-71
2023/10/09 08:21:41;;;;;;;0.00;0.00;;;10.90;100.00;;;;;;5005842;28;20340;-71
2023/10/09 08:24:35;;;;;;;0.00;0.00;;;10.90;100.00;;;;;;5006268;28;20054;-71
2023/10/09 08:27:45;;;;;;;0.00;0.00;;;11.00;100.00;;;;;;5005961;28;20081;-71
2023/10/09 08:29:47;;;;;;;0.00;0.00;;;11.00;100.00;;;;;;5005469;28;20046;-71
2023/10/09 08:32:38;;;;;;;0.00;0.00;;;11.00;100.00;;;;;;5006129;28;20046;-71
2023/10/09 08:38:08;;;;;;;0.00;0.00;;;11.10;100.00;;;;;;4992888;28;20104;-71
2023/10/09 08:40:43;;;;;;;0.00;0.00;;;11.30;100.00;;;;;;5004905;28;20049;-71
2023/10/09 08:43:14;;;;;;;0.00;0.00;;;11.40;100.00;;;;;;5004883;28;20049;-70
2023/10/09 08:45:46;;;;;;;0.00;0.00;;;11.40;100.00;;;;;;5005748;28;20091;-70
2023/10/09 08:48:17;;;;;;;0.00;0.00;;;11.50;100.00;;;;;;4998263;28;20054;-70
2023/10/09 08:50:46;;;;;;;0.00;0.00;;;11.70;100.00;;;;;;5002122;28;20046;-70
2023/10/09 08:53:13;;;;;;;0.00;0.00;;;11.90;100.00;;;;;;5005158;28;20073;-70
2023/10/09 08:55:41;;;;;;;0.00;0.00;;;12.00;100.00;;;;;;5005127;28;20050;-70
2023/10/09 08:58:24;;;;;;;0.00;0.00;;;12.10;100.00;;;;;;5004588;28;20676;-70
2023/10/09 09:00:52;;;;;;;0.00;0.00;;;12.10;100.00;;;;;;5005613;28;20136;-70
2023/10/09 09:03:22;;;;;;;0.00;0.00;;;12.10;100.00;;;;;;5006992;28;20100;-70
2023/10/09 09:06:04;;;;;;;0.00;0.00;;;12.10;100.00;;;;;;5004924;28;20053;-70
2023/10/09 09:08:36;;;;;;;0.00;0.00;;;12.00;100.00;;;;;;5005500;28;20050;-68
2023/10/09 09:11:30;;;;;;;0.00;0.00;;;12.00;100.00;;;;;;5005802;28;20045;-67
2023/10/09 09:14:12;;;;;;;0.00;0.00;;;11.90;100.00;;;;;;5000607;28;20049;-69
2023/10/09 09:16:44;;;;;;;0.00;0.00;;;11.90;100.00;;;;;;5007434;28;20429;-70
2023/10/09 09:19:20;;;;;;;0.00;0.00;;;12.00;100.00;;;;;;5000736;28;20081;-69
2023/10/09 09:21:56;;;;;;;0.00;0.00;;;12.10;100.00;;;;;;5000388;28;20058;-69
2023/10/09 09:29:39;;;;;;;0.00;0.00;;;12.30;100.00;;;;;;5007473;28;20077;-70
2023/10/09 09:32:18;;;;;;;0.00;0.00;;;12.40;100.00;;;;;;5020669;28;20160;-69
2023/10/09 09:34:49;;;;;;;0.00;0.00;;;12.50;100.00;;;;;;5005015;28;20050;-69
2023/10/09 09:37:26;;;;;;;0.00;0.00;;;12.60;100.00;;;;;;5008054;28;20427;-69
2023/10/09 09:42:51;;;;;;;0.00;0.00;;;12.70;99.40;;;;;;5005228;28;20075;-69
2023/10/09 09:45:23;;;;;;;0.00;0.00;;;12.70;98.50;;;;;;5003372;28;20100;-70
2023/10/09 09:47:54;;;;;;;0.00;0.00;;;12.70;98.00;;;;;;5005768;28;20056;-69
2023/10/09 09:50:28;;;;;;;0.00;0.00;;;12.60;98.40;;;;;;5005934;28;20061;-69
2023/10/09 09:52:56;;;;;;;0.00;0.00;;;12.80;98.60;;;;;;5005290;28;20451;-70
2023/10/09 09:55:34;;;;;;;0.00;0.00;;;13.20;98.10;;;;;;5007082;28;20092;-70
2023/10/09 09:58:07;;;;;;;0.00;0.00;;;13.40;98.10;;;;;;5009626;28;20400;-69
2023/10/09 10:00:42;;;;;;;0.00;0.00;;;13.60;97.10;;;;;;5007789;28;20629;-67
2023/10/09 10:03:18;;;;;;;0.00;0.00;;;13.80;94.50;;;;;;5011353;28;20056;-69
2023/10/09 10:05:48;;;;;;;;;;;13.90;93.00;;;;;;5017196;28;20050;-69
2023/10/09 10:08:20;;;;;;;0.00;0.00;;;14.00;94.80;;;;;;5003660;28;19925;-67
2023/10/09 10:10:58;;;;;;;0.00;0.00;;;14.20;94.50;;;;;;5000929;28;20064;-68
2023/10/09 10:13:40;;;;;;;0.00;0.00;;;14.30;92.80;;;;;;5002085;28;20137;-68
2023/10/09 10:16:20;;;;;;;0.00;0.00;;;14.50;91.70;;;;;;5002591;28;20049;-68
2023/10/09 10:19:00;;;;;;;0.00;0.00;;;14.50;91.20;;;;;;5004511;28;20045;-69
2023/10/09 10:24:06;;;;;;;0.00;0.00;;;14.40;91.20;;;;;;5003790;28;20104;-69
2023/10/09 10:26:36;;;;;;;0.00;0.00;;;14.20;90.40;;;;;;5003206;28;20050;-69
2023/10/09 10:29:23;;;;;;;0.00;0.00;;;14.30;90.50;;;;;;5003998;28;20054;-69
2023/10/09 10:31:55;;;;;;;0.00;0.00;;;14.40;91.60;;;;;;5001156;28;20053;-69
2023/10/09 10:34:24;;;;;;;0.00;0.00;;;14.40;90.70;;;;;;4997630;28;20046;-69
2023/10/09 10:36:58;;;;;;;0.00;0.00;;;14.40;90.00;;;;;;5002607;28;20045;-69
2023/10/09 10:39:44;;;;;;;0.00;0.00;;;14.30;88.00;;;;;;5003563;28;20057;-69
2023/10/09 10:45:02;;;;;;;0.00;0.00;;;13.90;90.20;;;;;;5002479;28;20561;-69
2023/10/09 10:47:34;;;;;;;0.00;0.00;;;13.90;90.50;;;;;;5001566;28;20569;-68
2023/10/09 10:50:35;;;;;;;0.00;0.00;;;13.70;90.10;;;;;;5003135;28;20410;-68
2023/10/09 10:53:16;;;;;;;0.00;0.00;;;13.60;91.30;;;;;;5008191;28;20046;-70
2023/10/09 10:56:06;;;;;;;0.00;0.00;;;13.50;91.00;;;;;;5006447;28;20050;-69
2023/10/09 10:58:36;;;;;;;0.00;0.00;;;13.40;91.50;;;;;;5006769;28;20747;-69
2023/10/09 11:01:13;;;;;;;0.00;0.00;;;13.40;92.00;;;;;;5001970;28;20553;-69
2023/10/09 11:03:56;;;;;;;0.00;0.00;;;13.40;92.50;;;;;;5005922;28;20501;-69
2023/10/09 11:06:37;;;;;;;0.00;0.00;;;13.40;92.30;;;;;;4999611;28;20081;-69
2023/10/09 11:09:20;;;;;;;0.00;0.00;;;13.40;92.70;;;;;;5004460;28;20080;-69
2023/10/09 11:11:49;;;;;;;0.00;0.00;;;13.30;92.50;;;;;;5004345;28;20045;-69
2023/10/09 11:14:23;;;;;;;0.00;0.00;;;13.30;93.00;;;;;;5003075;28;20120;-69
2023/10/09 11:16:57;;;;;;;0.00;0.00;;;13.10;91.50;;;;;;5009736;28;20077;-69
2023/10/09 11:19:31;;;;;;;0.00;0.00;;;13.10;93.80;;;;;;5003491;28;20057;-69
2023/10/09 11:24:36;;;;;;;0.00;0.00;;;13.10;93.90;;;;;;5004495;28;20054;-69
2023/10/09 11:27:06;;;;;;;0.00;0.00;;;13.10;94.00;;;;;;4997183;28;20058;-69
2023/10/09 11:32:25;;;;;;;0.00;0.00;;;13.10;94.20;;;;;;5002952;28;20050;-69
2023/10/09 11:35:14;;;;;;;0.00;0.00;;;13.20;95.10;;;;;;5005394;28;20045;-69
2023/10/09 11:37:43;;;;;;;0.00;0.00;;;13.20;92.60;;;;;;5032447;28;20053;-69
2023/10/09 11:40:42;;;;;;;0.00;0.00;;;13.00;92.40;;;;;;5004690;28;20176;-69
2023/10/09 11:43:13;;;;;;;0.00;0.00;;;13.00;94.20;;;;;;5008923;28;20052;-70
2023/10/09 11:45:53;;;;;;;0.00;0.00;;;13.10;94.80;;;;;;5006229;28;20112;-69
2023/10/09 11:48:31;;;;;;;0.00;0.00;;;13.10;94.10;;;;;;5014090;28;20149;-69
2023/10/09 11:53:59;;;;;;;0.00;0.00;;;13.30;93.70;;;;;;5007260;28;20068;-70
2023/10/09 11:56:27;;;;;;;0.00;0.00;;;13.40;93.70;;;;;;5005050;28;20046;-70
2023/10/09 11:58:58;;;;;;;0.00;0.00;;;13.50;92.90;;;;;;5022949;28;20057;-70
2023/10/09 12:01:26;;;;;;;0.00;0.00;;;13.40;91.70;;;;;;5006238;28;20053;-70
2023/10/09 12:03:53;;;;;;;0.00;0.00;;;13.30;90.90;;;;;;5006819;28;20502;-69
2023/10/09 12:06:24;;;;;;;0.00;0.00;;;13.10;91.30;;;;;;5010308;28;20061;-69
2023/10/09 12:08:51;;;;;;;0.00;0.00;;;13.10;93.60;;;;;;5006504;28;20129;-69
2023/10/09 12:11:28;;;;;;;0.00;0.00;;;13.10;94.30;;;;;;5007108;28;20054;-69
2023/10/09 12:13:57;;;;;;;0.00;0.00;;;13.10;93.90;;;;;;5002721;28;20050;-69
2023/10/09 12:16:27;;;;;;;0.00;0.00;;;13.10;94.30;;;;;;5006047;28;20402;-69
2023/10/09 12:18:56;;;;;;;0.00;0.00;;;13.10;94.30;;;;;;5005881;28;20521;-69
2023/10/09 12:21:23;;;;;;;0.00;0.00;;;13.10;94.40;;;;;;5007979;28;20053;-69
2023/10/09 12:23:50;;;;;;;0.00;0.00;;;13.10;93.60;;;;;;5006096;28;20178;-75
2023/10/09 12:26:17;;;;;;;0.00;0.00;;;13.10;94.50;;;;;;5016201;28;20100;-75
2023/10/09 12:28:49;;;;;;;0.00;0.00;;;13.00;93.90;;;;;;5007625;28;20050;-75
2023/10/09 12:31:20;;;;;;;0.00;0.00;;;13.00;93.50;;;;;;5002068;28;20739;-75
2023/10/09 12:33:49;;;;;;;0.00;0.00;;;12.90;93.60;;;;;;5002605;28;20046;-75
2023/10/09 12:36:19;;;;;;;0.00;0.00;;;12.90;93.50;;;;;;5010594;28;20054;-76
2023/10/09 12:38:52;;;;;;;0.00;0.00;;;12.80;94.70;;;;;;5010299;28;20081;-75
2023/10/09 12:41:20;;;;;;;0.00;0.00;;;12.90;94.60;;;;;;5005563;28;20045;-74
2023/10/09 12:43:47;;;;;;;0.00;0.00;;;12.90;95.50;;;;;;5007295;28;20057;-69
2023/10/09 12:46:16;;;;;;;0.00;0.00;;;12.90;94.40;;;;;;5006009;28;20053;-70
2023/10/09 12:48:47;;;;;;;0.00;0.00;;;12.90;95.10;;;;;;5004478;28;20077;-69
2023/10/09 12:51:18;;;;;;;0.00;0.00;;;13.00;95.30;;;;;;5003497;28;20086;-69
2023/10/09 12:53:48;;;;;;;0.00;0.00;;;13.00;95.10;;;;;;5006555;28;20146;-69
2023/10/09 12:56:18;;;;;;;0.00;0.00;;;13.00;94.20;;;;;;4998559;28;20049;-69
2023/10/09 12:58:52;;;;;;;0.00;0.00;;;13.10;94.10;;;;;;5005981;28;20050;-69
2023/10/09 13:01:20;;;;;;;0.00;0.00;;;13.10;94.00;;;;;;5002846;28;20060;-69
2023/10/09 13:03:50;;;;;;;0.00;0.00;;;13.10;94.60;;;;;;5004186;28;20068;-69
2023/10/09 13:06:23;;;;;;;0.00;0.00;;;13.10;93.60;;;;;;5004020;28;20077;-69
2023/10/09 13:08:51;;;;;;;0.00;0.00;;;13.10;95.50;;;;;;5005723;28;20494;-69
2023/10/09 13:11:19;;;;;;;0.00;0.00;;;13.20;93.80;;;;;;5005183;28;20454;-69
2023/10/09 13:13:52;;;;;;;0.00;0.00;;;13.20;94.40;;;;;;5005465;28;20516;-69
2023/10/09 13:16:23;;;;;;;0.00;0.00;;;13.20;94.00;;;;;;5006058;28;20046;-69
2023/10/09 13:18:50;;;;;;;0.00;0.00;;;13.20;93.70;;;;;;5004896;28;20510;-69
2023/10/09 13:21:37;;;;;;;0.00;0.00;;;13.20;94.20;;;;;;5018874;28;20054;-69
2023/10/09 13:24:04;;;;;;;0.00;0.00;;;13.20;94.10;;;;;;5002166;28;20145;-69
2023/10/09 13:26:33;;;;;;;0.00;0.00;;;13.10;93.70;;;;;;5005116;28;20188;-69
2023/10/09 13:29:02;;;;;;;0.00;0.00;;;13.10;93.60;;;;;;5002322;28;20449;-69
2023/10/09 13:31:33;;;;;;;0.00;0.00;;;13.10;93.90;;;;;;5004973;28;20743;-69
2023/10/09 13:34:03;;;;;;;0.00;0.00;;;13.10;94.00;;;;;;5003217;28;20173;-69
2023/10/09 13:36:34;;;;;;;0.00;0.00;;;13.10;94.30;;;;;;5004903;28;20495;-69
2023/10/09 13:41:59;;;;;;;0.00;0.00;;;13.00;95.00;;;;;;4995949;28;20054;-69
2023/10/09 13:44:31;;;;;;;0.00;0.00;;;13.10;95.50;;;;;;5005734;28;20049;-68
2023/10/09 13:47:01;;;;;;;0.00;0.00;;;13.20;95.20;;;;;;5005039;28;20065;-69
2023/10/09 13:49:31;;;;;;;0.93;0.57;;;13.40;94.60;;;;;;5005920;28;20052;-69
2023/10/09 13:52:02;;;;;;;0.00;0.00;;;13.50;95.30;;;;;;5007137;28;20043;-69
2023/10/09 13:57:04;;;;;;;0.00;0.00;;;13.60;93.20;;;;;;5011525;28;20049;-69
2023/10/09 13:59:34;;;;;;;0.00;0.00;;;13.60;93.20;;;;;;5005501;28;20445;-70
2023/10/09 14:02:08;;;;;;;0.00;0.00;;;13.70;92.60;;;;;;5000621;28;20716;-70
2023/10/09 14:04:36;;;;;;;0.00;0.00;;;13.70;91.80;;;;;;5004205;28;20046;-69
2023/10/09 14:07:05;;;;;;;0.00;0.00;;;13.60;92.00;;;;;;5004451;28;20046;-69
2023/10/09 14:10:25;;;;;;;0.00;0.00;;;13.60;91.60;;;;;;5019361;28;20517;-70
2023/10/09 14:12:21;;;;;;;0.00;0.00;;;13.50;90.70;;;;;;4999223;28;20662;-69
2023/10/09 14:14:48;;;;;;;0.00;0.00;;;13.40;92.20;;;;;;5002087;28;20105;-69
2023/10/09 14:17:23;;;;;;;0.00;0.00;;;13.40;92.10;;;;;;5003417;28;20536;-68
2023/10/09 14:20:00;;;;;;;0.00;0.00;;;13.30;93.10;;;;;;5001888;28;20141;-69
2023/10/09 14:22:29;;;;;;;0.00;0.00;;;13.20;92.70;;;;;;5003271;28;20057;-69
2023/10/09 14:24:56;;;;;;;0.00;0.00;;;13.20;93.70;;;;;;5002461;28;20702;-69
2023/10/09 14:27:35;;;;;;;0.00;0.00;;;13.10;92.10;;;;;;4992658;28;20050;-69
2023/10/09 14:30:12;;;;;;;0.00;0.00;;;13.00;92.50;;;;;;5002746;28;20049;-69
2023/10/09 14:32:51;;;;;;;0.00;0.00;;;12.90;92.10;;;;;;4997153;28;20115;-69
2023/10/09 14:35:21;;;;;;;0.00;0.00;;;12.90;93.10;;;;;;4998792;28;20053;-70
2023/10/09 14:37:48;;;;;;;0.00;0.00;;;12.80;93.80;;;;;;5002925;28;20046;-69
2023/10/09 14:40:20;;;;;;;0.00;0.00;;;12.80;94.50;;;;;;5003843;28;20522;-69
2023/10/09 14:42:52;;;;;;;0.00;0.00;;;12.70;95.00;;;;;;5003129;28;20053;-69
2023/10/09 14:45:25;;;;;;;0.00;0.00;;;12.70;93.70;;;;;;5002380;28;20076;-69
2023/10/09 14:47:53;;;;;;;0.00;0.00;;;12.60;93.70;;;;;;5004253;28;20149;-69
2023/10/09 14:50:24;;;;;;;0.00;0.00;;;12.60;94.30;;;;;;5003531;28;20570;-69
2023/10/09 14:52:51;;;;;;;0.00;0.00;;;12.50;95.50;;;;;;5001677;28;20065;-69
2023/10/09 14:55:21;;;;;;;0.00;0.00;;;12.50;95.40;;;;;;5001042;28;20046;-69
2023/10/09 14:57:52;;;;;;;0.00;0.00;;;12.40;96.10;;;;;;5004447;28;20578;-69
2023/10/09 15:00:22;;;;;;;0.00;0.00;;;12.40;96.50;;;;;;5003334;28;20042;-70
2023/10/09 15:02:52;;;;;;;0.00;0.00;;;12.30;96.30;;;;;;5003618;28;20081;-69
2023/10/09 15:05:19;;;;;;;0.00;0.00;;;12.30;96.70;;;;;;5003569;28;20630;-69
2023/10/09 15:07:46;;;;;;;0.00;0.00;;;12.30;96.30;;;;;;5002664;28;20548;-70
2023/10/09 15:10:16;;;;;;;0.00;0.00;;;12.30;96.00;;;;;;5007709;28;20224;-69